Den Helder, Netherlands
Current Conditions -  °F | °C
As of 9:55 PM on Friday 28 Nov 2014 (Local Time) from EHKD Reporting Station
Haze Haze  
Wind Chill: 29°   Ceiling: 11000
Heat Index: 39°   Visibility: 4mi
Dew Point: 36°   Wind: 21mph
Humidity: 87%   Direction: 100°E
Pressure: 29.88"   Gusts: NA
Location:  52.96°N, 4.76°E
Report Text: EHKD 282055Z AUTO 10018KT 6000 BR OVC110 04/02 Q1012 WHT
Loading
Personal Weather Stations






























Interactive Weather Map New forecast layout! Learn more

10-Day Weather Forecast

Advertisements
Track Severe Weather on mobile